Thursday, February 22, 2018, 10:41 AM GMT
Back to Local

CYPQ, Peterborough Airport

Location: , , Canada Lat: 44.233
Local Time: 10:41 AM GMT (10:41 GMT) Lon: -78.367
Time Zone: GMT Elev: 626 ft

Show me the last for .
Show Decoded

2018-02-22 10:00 METAR CYPQ 221000Z AUTO 34004KT 9SM BKN180 BKN200 M04/M05 A3064 RMK SLP389 =
2018-02-22 09:00 METAR CYPQ 220900Z AUTO 33004KT 9SM SCT190 BKN220 M04/M06 A3064 RMK SLP387 =
2018-02-22 08:00 METAR CYPQ 220800Z AUTO 31004KT 9SM BKN190 BKN210 M04/M05 A3066 RMK SLP394 =
2018-02-22 07:00 METAR CYPQ 220700Z AUTO 32005KT 9SM OVC180 M03/M05 A3066 RMK SLP393 =
2018-02-22 06:00 METAR CYPQ 220600Z AUTO VRB02KT 9SM BKN210 BKN230 M03/M05 A3065 RMK SLP392 =
2018-02-22 05:00 METAR CYPQ 220500Z AUTO 31007KT 9SM BKN190 BKN210 M03/M05 A3063 RMK SLP382 =
2018-02-22 04:00 METAR CYPQ 220400Z AUTO 30007KT 9SM BKN190 BKN240 M02/M05 A3061 RMK SLP377 =

Support USWX by starting your Amazon purchase here.